createdAt,value
2023-05-06T00:00:40.013Z,60.95
2023-05-06T00:05:39.645Z,60.25
2023-05-06T00:10:41.157Z,59.84
2023-05-06T00:15:39.226Z,59.15
2023-05-06T00:20:39.546Z,58.55
2023-05-06T00:25:39.586Z,58.05
2023-05-06T00:30:39.402Z,58.02
2023-05-06T00:35:41.576Z,57.83
2023-05-06T00:40:39.301Z,57.49
2023-05-06T00:45:39.540Z,57.17
2023-05-06T00:50:39.814Z,56.95
2023-05-06T00:55:39.474Z,57.09
2023-05-06T01:00:39.263Z,56.65
2023-05-06T01:05:47.658Z,56.35
2023-05-06T01:10:47.747Z,56.05
2023-05-06T01:15:44.474Z,56.05
2023-05-06T01:20:41.031Z,56.06
2023-05-06T01:25:39.847Z,56.01
2023-05-06T01:30:47.743Z,56.11
2023-05-06T01:35:48.882Z,56.28
2023-05-06T01:40:40.539Z,56.28
2023-05-06T01:45:40.470Z,56.09
2023-05-06T01:50:40.340Z,56.14
2023-05-06T01:55:41.254Z,56.30
2023-05-06T02:00:39.127Z,56.00
2023-05-06T02:05:39.408Z,56.01
2023-05-06T02:10:39.130Z,56.06
2023-05-06T02:15:39.098Z,56.03
2023-05-06T02:20:39.573Z,56.00
2023-05-06T02:24:42.322Z,55.80
2023-05-06T02:25:40.992Z,55.80
2023-05-06T02:30:39.043Z,55.86
2023-05-06T02:35:40.161Z,55.60
2023-05-06T02:40:39.030Z,55.35
2023-05-06T02:45:39.201Z,55.34
2023-05-06T02:50:40.239Z,55.15
2023-05-06T02:55:39.113Z,55.15
2023-05-06T03:00:39.063Z,55.08
2023-05-06T03:05:39.208Z,54.81
2023-05-06T03:10:39.351Z,54.90
2023-05-06T03:15:39.036Z,54.78
2023-05-06T03:20:39.082Z,54.62
2023-05-06T03:25:39.756Z,54.51
2023-05-06T03:30:39.293Z,54.15
2023-05-06T03:35:39.342Z,54.18
2023-05-06T03:40:39.491Z,54.20
2023-05-06T03:45:39.001Z,54.45
2023-05-06T03:50:39.345Z,54.45
2023-05-06T03:55:39.266Z,54.63
2023-05-06T04:00:39.020Z,54.82
2023-05-06T04:05:38.994Z,54.79
2023-05-06T04:10:40.312Z,54.88
2023-05-06T04:15:40.535Z,54.85
2023-05-06T04:20:39.013Z,54.77
2023-05-06T04:25:41.660Z,55.36
2023-05-06T04:30:38.972Z,55.40
2023-05-06T04:35:40.063Z,55.26
2023-05-06T04:40:39.670Z,55.98
2023-05-06T04:45:41.506Z,55.50
2023-05-06T04:50:39.039Z,56.13
2023-05-06T04:55:41.272Z,56.06
2023-05-06T05:00:39.037Z,56.14
2023-05-06T05:05:39.444Z,56.85
2023-05-06T05:10:40.207Z,56.99
2023-05-06T05:15:39.026Z,56.77
2023-05-06T05:20:39.237Z,57.15
2023-05-06T05:25:39.540Z,57.83
2023-05-06T05:30:38.981Z,57.46
2023-05-06T05:35:40.989Z,57.73
2023-05-06T05:40:38.945Z,56.83
2023-05-06T05:45:39.020Z,56.93
2023-05-06T05:50:40.913Z,57.58
2023-05-06T05:55:43.029Z,57.84
2023-05-06T06:00:39.139Z,57.70
2023-05-06T06:05:40.893Z,57.68
2023-05-06T06:10:41.205Z,57.60
2023-05-06T06:15:40.746Z,57.55
2023-05-06T06:20:39.149Z,57.18
2023-05-06T06:25:39.072Z,56.67
2023-05-06T06:30:39.008Z,56.28
2023-05-06T06:35:39.262Z,55.62
2023-05-06T06:40:38.977Z,54.62
2023-05-06T06:45:39.160Z,54.47
2023-05-06T06:50:39.239Z,53.90
2023-05-06T06:55:42.230Z,51.82
2023-05-06T07:00:38.884Z,50.95
2023-05-06T07:05:39.096Z,49.24
2023-05-06T07:10:40.858Z,49.00
2023-05-06T07:15:38.817Z,47.98
2023-05-06T07:20:40.832Z,46.68
2023-05-06T07:25:38.972Z,46.72
2023-05-06T07:30:40.996Z,45.79
2023-05-06T07:35:38.884Z,45.26
2023-05-06T07:40:39.357Z,44.94
2023-05-06T07:45:39.083Z,44.82
2023-05-06T07:50:40.890Z,44.24
2023-05-06T07:55:38.795Z,44.08
2023-05-06T08:00:40.736Z,43.28
2023-05-06T08:05:39.161Z,43.14
2023-05-06T08:10:42.754Z,41.93
2023-05-06T08:15:40.975Z,42.07
2023-05-06T08:20:38.969Z,42.25
2023-05-06T08:25:40.711Z,42.22
2023-05-06T08:30:39.105Z,42.06
2023-05-06T08:35:40.756Z,41.83
2023-05-06T08:40:42.253Z,42.06
2023-05-06T08:45:39.332Z,41.83
2023-05-06T08:50:42.172Z,41.82
2023-05-06T08:55:42.475Z,41.50
2023-05-06T09:00:41.931Z,40.94
2023-05-06T09:05:40.591Z,41.45
2023-05-06T09:10:43.086Z,40.84
2023-05-06T09:15:39.751Z,40.10
2023-05-06T09:20:40.511Z,39.78
2023-05-06T09:25:39.044Z,39.16
2023-05-06T09:30:41.959Z,39.47
2023-05-06T09:35:42.440Z,39.14
2023-05-06T09:40:38.792Z,38.74
2023-05-06T09:45:40.032Z,38.55
2023-05-06T09:50:38.832Z,38.05
2023-05-06T09:55:39.115Z,38.46
2023-05-06T10:00:40.384Z,38.12
2023-05-06T10:05:41.087Z,38.06
2023-05-06T10:10:41.944Z,38.43
2023-05-06T10:15:39.085Z,38.32
2023-05-06T10:20:41.611Z,38.47
2023-05-06T10:25:41.518Z,38.61
2023-05-06T10:30:40.467Z,38.48
2023-05-06T10:35:45.231Z,38.64
2023-05-06T10:40:39.471Z,38.64
2023-05-06T10:45:58.756Z,40.62
2023-05-06T10:50:38.733Z,40.62
2023-05-06T10:55:38.777Z,40.91
2023-05-06T11:00:39.117Z,42.30
2023-05-06T11:05:48.697Z,42.65
2023-05-06T11:10:38.821Z,42.65
2023-05-06T11:15:39.892Z,42.25
2023-05-06T11:20:38.686Z,42.88
2023-05-06T11:25:39.859Z,42.15
2023-05-06T11:30:41.172Z,41.88
2023-05-06T11:35:38.919Z,42.07
2023-05-06T11:40:40.850Z,42.57
2023-05-06T11:45:39.255Z,43.19
2023-05-06T11:50:42.919Z,43.49
2023-05-06T11:55:43.142Z,43.98
2023-05-06T12:00:45.286Z,45.50
2023-05-06T12:05:40.918Z,45.50
2023-05-06T12:10:39.287Z,46.31
2023-05-06T12:15:41.594Z,45.45
2023-05-06T12:20:38.936Z,45.56
2023-05-06T12:25:40.196Z,46.70
2023-05-06T12:30:38.873Z,45.86
2023-05-06T12:35:40.793Z,46.54
2023-05-06T12:40:39.524Z,46.99
2023-05-06T12:45:39.614Z,47.77
2023-05-06T12:50:40.762Z,48.67
2023-05-06T12:55:40.669Z,49.34
2023-05-06T13:00:38.721Z,50.20
2023-05-06T13:05:38.860Z,50.51
2023-05-06T13:10:38.833Z,51.71
2023-05-06T13:15:40.681Z,53.67
2023-05-06T13:20:38.720Z,54.90
2023-05-06T13:25:51.655Z,54.73
2023-05-06T13:30:39.160Z,55.69
2023-05-06T13:35:40.432Z,57.10
2023-05-06T13:40:38.669Z,57.86
2023-05-06T13:45:40.670Z,59.99
2023-05-06T13:50:40.584Z,63.36
2023-05-06T13:55:41.804Z,62.94
2023-05-06T14:00:38.908Z,64.81
2023-05-06T14:05:38.669Z,67.14
2023-05-06T14:10:38.877Z,66.56
2023-05-06T14:15:39.036Z,68.58
2023-05-06T14:20:40.480Z,71.02
2023-05-06T14:25:39.159Z,69.37
2023-05-06T14:30:38.963Z,70.88
2023-05-06T14:35:40.962Z,71.00
2023-05-06T14:40:38.628Z,72.58
2023-05-06T14:45:38.993Z,74.21
2023-05-06T14:50:38.750Z,74.89
2023-05-06T14:55:41.175Z,73.89
2023-05-06T15:00:38.754Z,71.39
2023-05-06T15:05:40.468Z,72.38
2023-05-06T15:10:39.718Z,71.62
2023-05-06T15:15:38.982Z,71.33
2023-05-06T15:20:38.674Z,70.58
2023-05-06T15:25:38.854Z,70.75
2023-05-06T15:30:40.506Z,71.29
2023-05-06T15:35:38.540Z,71.15
2023-05-06T15:40:39.587Z,71.82
2023-05-06T15:45:38.721Z,73.45
2023-05-06T15:50:39.121Z,72.88
2023-05-06T15:50:57.436Z,72.94
2023-05-06T15:55:45.549Z,72.94
2023-05-06T16:00:38.714Z,73.24
2023-05-06T16:05:40.693Z,73.69
2023-05-06T16:10:40.389Z,73.80
2023-05-06T16:15:38.826Z,74.73
2023-05-06T16:20:39.287Z,74.87
2023-05-06T16:25:38.709Z,75.05
2023-05-06T16:30:39.496Z,75.39
2023-05-06T16:35:39.325Z,76.23
2023-05-06T16:40:40.820Z,77.32
2023-05-06T16:45:40.424Z,77.32
2023-05-06T16:50:39.125Z,78.16
2023-05-06T16:55:38.546Z,78.12
2023-05-06T17:00:38.885Z,78.67
2023-05-06T17:08:55.237Z,79.24
2023-05-06T17:10:38.484Z,79.24
2023-05-06T17:15:38.905Z,79.31
2023-05-06T17:20:47.933Z,79.13
2023-05-06T17:25:38.432Z,78.75
2023-05-06T17:29:03.149Z,79.99
2023-05-06T17:30:38.461Z,79.99
2023-05-06T17:35:39.009Z,79.82
2023-05-06T17:40:38.465Z,80.51
2023-05-06T17:45:39.749Z,80.36
2023-05-06T17:50:38.691Z,81.06
2023-05-06T17:54:57.113Z,81.89
2023-05-06T17:55:38.782Z,81.89
2023-05-06T18:00:38.676Z,80.94
2023-05-06T18:06:06.908Z,82.37
2023-05-06T18:10:41.525Z,82.37
2023-05-06T18:15:38.447Z,81.42
2023-05-06T18:20:39.670Z,82.76
2023-05-06T18:25:38.513Z,82.97
2023-05-06T18:30:38.477Z,83.39
2023-05-06T21:56:34.387Z,86.90
2023-05-06T21:57:11.975Z,86.90
2023-05-06T22:02:11.619Z,86.27
2023-05-06T22:07:11.768Z,86.36
2023-05-06T22:12:11.883Z,85.49
2023-05-06T22:17:11.493Z,86.11
2023-05-06T22:22:11.870Z,85.92
2023-05-06T22:27:11.555Z,85.71
2023-05-06T22:32:11.579Z,85.11
2023-05-06T22:37:11.939Z,85.09
2023-05-06T22:42:11.469Z,85.12
2023-05-06T22:47:11.917Z,85.20
2023-05-06T22:52:12.024Z,84.81
2023-05-06T22:57:11.740Z,85.38
2023-05-06T23:02:11.669Z,85.28
2023-05-06T23:07:12.819Z,85.61
2023-05-06T23:12:11.537Z,85.42
2023-05-06T23:17:11.649Z,85.89
2023-05-06T23:22:11.836Z,85.37
2023-05-06T23:27:11.475Z,85.12
2023-05-06T23:32:11.596Z,85.30
2023-05-06T23:37:11.840Z,85.87
2023-05-06T23:42:11.431Z,86.78
2023-05-06T23:47:11.606Z,86.95
2023-05-06T23:52:11.575Z,87.31
2023-05-06T23:57:11.743Z,87.54
